createdAt,value
2022-12-11T00:06:06.079Z,-0.43
2022-12-11T00:08:54.809Z,-0.21
2022-12-11T00:14:28.575Z,-0.38
2022-12-11T00:17:16.970Z,-0.41
2022-12-11T00:20:06.278Z,-0.36
2022-12-11T00:25:44.782Z,-0.36
2022-12-11T00:31:21.648Z,-0.30
2022-12-11T00:34:10.017Z,-0.32
2022-12-11T00:39:56.197Z,-0.22
2022-12-11T00:45:45.329Z,-0.29
2022-12-11T00:51:17.038Z,-0.44
2022-12-11T00:54:06.513Z,-0.57
2022-12-11T00:59:37.305Z,-0.70
2022-12-11T01:05:13.805Z,-0.67
2022-12-11T01:10:47.023Z,-0.86
2022-12-11T01:16:24.119Z,-0.82
2022-12-11T01:21:55.470Z,-1.14
2022-12-11T01:24:44.642Z,-1.28
2022-12-11T01:27:32.892Z,-1.20
2022-12-11T01:33:03.968Z,-0.95
2022-12-11T01:38:35.936Z,-1.22
2022-12-11T01:44:31.634Z,-1.22
2022-12-11T01:50:11.713Z,-1.12
2022-12-11T01:52:59.932Z,-1.13
2022-12-11T01:55:50.217Z,-1.22
2022-12-11T02:01:26.656Z,-1.03
2022-12-11T02:06:55.835Z,-0.98
2022-12-11T02:09:47.303Z,-1.07
2022-12-11T02:15:30.109Z,-1.15
2022-12-11T02:21:15.418Z,-1.13
2022-12-11T02:24:41.153Z,-1.18
2022-12-11T02:27:58.124Z,-1.17
2022-12-11T02:36:27.556Z,-1.31
2022-12-11T02:39:18.260Z,-1.33
2022-12-11T02:44:54.530Z,-1.50
2022-12-11T02:50:31.498Z,-1.69
2022-12-11T02:56:12.320Z,-1.83
2022-12-11T03:07:15.118Z,-1.85
2022-12-11T03:10:05.009Z,-1.96
2022-12-11T03:12:55.981Z,-1.83
2022-12-11T03:18:30.659Z,-1.97
2022-12-11T03:24:07.811Z,-1.99
2022-12-11T03:27:00.983Z,-2.04
2022-12-11T03:32:38.470Z,-2.14
2022-12-11T03:35:29.169Z,-2.22
2022-12-11T03:38:20.447Z,-2.04
2022-12-11T03:41:09.888Z,-2.34
2022-12-11T03:46:41.316Z,-2.41
2022-12-11T03:52:28.599Z,-2.50
2022-12-11T03:55:18.247Z,-2.64
2022-12-11T03:58:06.921Z,-2.68
2022-12-11T04:03:43.844Z,-2.72
2022-12-11T04:09:23.383Z,-2.83
2022-12-11T04:12:13.789Z,-2.87
2022-12-11T04:15:02.957Z,-2.88
2022-12-11T04:18:09.516Z,-2.78
2022-12-11T04:24:04.493Z,-2.67
2022-12-11T04:29:41.433Z,-2.90
2022-12-11T04:35:18.658Z,-2.70
2022-12-11T04:38:08.486Z,-2.85
2022-12-11T04:43:50.270Z,-2.72
2022-12-11T04:49:20.407Z,-2.95
2022-12-11T04:52:11.741Z,-3.07
2022-12-11T04:57:48.453Z,-3.07
2022-12-11T05:03:31.047Z,-2.92
2022-12-11T05:09:04.945Z,-3.14
2022-12-11T05:17:19.555Z,-3.17
2022-12-11T05:20:10.440Z,-3.29
2022-12-11T05:22:59.910Z,-3.30
2022-12-11T05:28:43.828Z,-3.27
2022-12-11T05:34:11.220Z,-3.28
2022-12-11T05:36:59.632Z,-3.38
2022-12-11T05:39:49.087Z,-3.40
2022-12-11T05:45:19.123Z,-3.44
2022-12-11T05:48:08.997Z,-3.26
2022-12-11T05:54:00.438Z,-3.34
2022-12-11T05:59:32.299Z,-3.39
2022-12-11T06:05:06.916Z,-3.44
2022-12-11T06:10:46.878Z,-3.27
2022-12-11T06:16:24.622Z,-3.33
2022-12-11T06:22:03.141Z,-3.46
2022-12-11T06:30:38.910Z,-3.53
2022-12-11T06:33:18.814Z,-3.56
2022-12-11T06:38:50.931Z,-3.40
2022-12-11T06:41:39.059Z,-3.49
2022-12-11T06:47:10.865Z,-3.35
2022-12-11T07:17:04.089Z,-3.36
2022-12-11T07:22:48.537Z,-3.20
2022-12-11T07:25:39.590Z,-3.14
2022-12-11T07:28:28.301Z,-3.32
2022-12-11T07:34:07.287Z,-3.58
2022-12-11T07:39:44.585Z,-3.45
2022-12-11T07:42:32.970Z,-3.49
2022-12-11T07:45:25.558Z,-3.40
2022-12-11T07:51:29.662Z,-3.39
2022-12-11T07:54:20.932Z,-3.25
2022-12-11T07:59:49.810Z,-3.11
2022-12-11T08:03:00.065Z,-3.05
2022-12-11T08:11:32.103Z,-2.87
2022-12-11T08:14:20.872Z,-2.95
2022-12-11T08:19:51.856Z,-2.66
2022-12-11T08:25:42.055Z,-2.45
2022-12-11T08:31:20.490Z,-2.33
2022-12-11T08:36:54.620Z,-2.44
2022-12-11T08:45:20.828Z,-2.43
2022-12-11T08:48:09.587Z,-2.38
2022-12-11T08:53:51.799Z,-2.19
2022-12-11T08:59:30.232Z,-2.05
2022-12-11T09:05:16.341Z,-2.10
2022-12-11T09:13:55.824Z,-1.75
2022-12-11T09:19:32.399Z,-1.71
2022-12-11T09:25:09.987Z,-1.42
2022-12-11T09:28:01.804Z,-1.41
2022-12-11T09:34:13.534Z,-1.35
2022-12-11T09:37:00.540Z,-1.41
2022-12-11T09:39:51.511Z,-1.67
2022-12-11T09:42:50.332Z,-1.47
2022-12-11T09:45:41.046Z,-1.76
2022-12-11T09:51:23.579Z,-1.18
2022-12-11T09:57:19.635Z,-1.17
2022-12-11T10:03:32.979Z,-0.87
2022-12-11T10:09:16.616Z,-0.72
2022-12-11T10:15:19.232Z,-0.48
2022-12-11T10:23:45.285Z,-0.38
2022-12-11T10:29:20.873Z,-0.16
2022-12-11T10:32:14.463Z,0.09
2022-12-11T10:37:49.878Z,0.39
2022-12-11T10:43:47.273Z,0.25
2022-12-11T10:49:27.804Z,0.66
2022-12-11T10:55:01.482Z,0.69
2022-12-11T11:00:41.269Z,0.71
2022-12-11T11:09:04.452Z,0.41
2022-12-11T11:14:34.458Z,0.13
2022-12-11T11:20:28.330Z,0.02
2022-12-11T11:28:52.099Z,-0.36
2022-12-11T11:34:30.903Z,-0.22
2022-12-11T11:43:07.618Z,0.57
2022-12-11T11:48:47.209Z,0.99
2022-12-11T11:54:26.689Z,1.04
2022-12-11T12:00:09.014Z,0.95
2022-12-11T12:06:14.907Z,1.20
2022-12-11T12:09:04.220Z,1.21
2022-12-11T12:14:55.881Z,1.30
2022-12-11T12:18:05.850Z,1.20
2022-12-11T12:23:54.089Z,1.71
2022-12-11T12:29:31.787Z,2.00
2022-12-11T12:35:13.037Z,1.62
2022-12-11T12:40:57.648Z,1.29
2022-12-11T12:47:17.339Z,0.89
2022-12-11T12:50:20.463Z,0.84
2022-12-11T12:53:13.906Z,0.69
2022-12-11T12:59:02.766Z,0.29
2022-12-11T13:01:55.293Z,0.55
2022-12-11T13:04:56.130Z,0.82
2022-12-11T13:07:36.815Z,0.96
2022-12-11T13:13:37.603Z,1.29
2022-12-11T13:19:29.899Z,1.15
2022-12-11T13:22:25.354Z,1.14
2022-12-11T13:28:34.008Z,0.81
2022-12-11T13:34:39.933Z,0.50
2022-12-11T13:37:35.219Z,0.43
2022-12-11T13:40:25.707Z,0.50
2022-12-11T13:43:20.568Z,0.59
2022-12-11T13:48:57.318Z,0.74
2022-12-11T13:54:51.048Z,0.42
2022-12-11T14:00:30.513Z,0.33
2022-12-11T14:06:21.038Z,0.52
2022-12-11T14:09:10.406Z,0.25
2022-12-11T14:12:00.377Z,0.37
2022-12-11T14:14:51.988Z,0.30
2022-12-11T14:20:48.646Z,0.17
2022-12-11T14:26:51.594Z,-0.07
2022-12-11T14:32:33.590Z,-0.40
2022-12-11T14:35:40.900Z,-0.40
2022-12-11T14:38:31.708Z,-0.71
2022-12-11T14:44:00.287Z,-0.80
2022-12-11T14:55:22.800Z,-0.77
2022-12-11T15:01:08.087Z,-1.08
2022-12-11T15:06:48.992Z,-1.06
2022-12-11T15:12:35.227Z,-1.23
2022-12-11T15:24:06.645Z,-1.45
2022-12-11T15:27:01.960Z,-1.48
2022-12-11T15:33:23.889Z,-1.47
2022-12-11T15:36:46.565Z,-1.61
2022-12-11T15:43:04.117Z,-1.74
2022-12-11T15:46:18.356Z,-1.67
2022-12-11T15:52:02.527Z,-1.92
2022-12-11T15:54:52.825Z,-2.04
2022-12-11T16:00:28.882Z,-2.08
2022-12-11T16:06:22.818Z,-2.04
2022-12-11T16:09:12.234Z,-2.08
2022-12-11T16:14:50.475Z,-2.11
2022-12-11T16:20:48.576Z,-2.23
2022-12-11T16:26:29.459Z,-2.21
2022-12-11T16:29:20.283Z,-2.34
2022-12-11T16:34:55.402Z,-2.49
2022-12-11T16:40:27.981Z,-2.42
2022-12-11T16:45:58.800Z,-2.52
2022-12-11T16:51:28.395Z,-2.37
2022-12-11T16:54:17.409Z,-2.43
2022-12-11T16:59:47.950Z,-2.39
2022-12-11T17:05:21.177Z,-2.38
2022-12-11T17:10:58.375Z,-2.36
2022-12-11T17:13:46.590Z,-2.47
2022-12-11T17:19:18.088Z,-2.62
2022-12-11T17:22:12.963Z,-2.71
2022-12-11T17:25:01.243Z,-2.56
2022-12-11T17:27:52.015Z,-2.74
2022-12-11T17:30:43.391Z,-2.76
2022-12-11T17:36:21.415Z,-2.82
2022-12-11T17:41:53.746Z,-2.59
2022-12-11T17:47:24.342Z,-2.75
2022-12-11T17:53:00.643Z,-2.73
2022-12-11T18:04:14.353Z,-2.87
2022-12-11T18:09:49.237Z,-2.84
2022-12-11T18:12:38.386Z,-2.92
2022-12-11T18:21:38.882Z,-2.95
2022-12-11T18:27:15.019Z,-2.86
2022-12-11T18:32:55.136Z,-2.74
2022-12-11T18:38:33.214Z,-2.82
2022-12-11T18:44:16.225Z,-2.73
2022-12-11T18:49:45.530Z,-2.84
2022-12-11T18:55:13.507Z,-2.84
2022-12-11T18:58:03.750Z,-2.86
2022-12-11T19:03:43.362Z,-2.84
2022-12-11T19:06:31.917Z,-2.88
2022-12-11T19:09:20.849Z,-2.91
2022-12-11T19:17:43.187Z,-2.85
2022-12-11T19:23:13.983Z,-2.67
2022-12-11T19:28:45.505Z,-2.61
2022-12-11T19:34:19.968Z,-2.50
2022-12-11T19:39:57.280Z,-2.53
2022-12-11T19:42:45.673Z,-2.52
2022-12-11T19:48:19.986Z,-2.49
2022-12-11T19:53:52.174Z,-2.35
2022-12-11T19:59:37.267Z,-2.35
2022-12-11T20:02:26.948Z,-2.39
2022-12-11T20:05:16.334Z,-2.37
2022-12-11T20:08:42.338Z,-2.53
2022-12-11T20:13:49.477Z,-2.63
2022-12-11T20:19:29.538Z,-2.73
2022-12-11T20:25:03.608Z,-2.86
2022-12-11T20:31:29.148Z,-2.90
2022-12-11T20:34:18.278Z,-2.90
2022-12-11T20:53:53.716Z,-3.45
2022-12-11T20:56:46.969Z,-3.58
2022-12-11T21:02:24.295Z,-3.76
2022-12-11T21:05:12.859Z,-3.90
2022-12-11T21:10:52.440Z,-3.83
2022-12-11T21:19:30.100Z,-3.90
2022-12-11T21:25:17.494Z,-3.80
2022-12-11T21:28:06.317Z,-3.92
2022-12-11T21:33:41.291Z,-3.98
2022-12-11T21:39:19.476Z,-4.00
2022-12-11T21:47:27.608Z,-4.05
2022-12-11T21:53:03.615Z,-3.93
2022-12-11T21:58:41.991Z,-4.00
2022-12-11T22:04:14.150Z,-3.83
2022-12-11T22:07:02.562Z,-3.95
2022-12-11T22:15:27.983Z,-4.00
2022-12-11T22:21:05.795Z,-3.95
2022-12-11T22:23:54.255Z,-3.96
2022-12-11T22:29:20.979Z,-3.99
2022-12-11T22:32:10.135Z,-4.13
2022-12-11T22:34:58.880Z,-4.19
2022-12-11T22:40:48.175Z,-4.27
2022-12-11T22:43:36.626Z,-4.23
2022-12-11T22:52:00.864Z,-4.08
2022-12-11T22:57:32.500Z,-4.31
2022-12-11T23:03:02.253Z,-4.21
2022-12-11T23:08:38.310Z,-4.07
2022-12-11T23:14:17.552Z,-3.99
2022-12-11T23:20:11.852Z,-4.10
2022-12-11T23:25:48.705Z,-4.19
2022-12-11T23:28:37.723Z,-4.14
2022-12-11T23:34:14.176Z,-3.99
2022-12-11T23:37:03.779Z,-3.94
2022-12-11T23:42:41.292Z,-3.98
2022-12-11T23:48:13.520Z,-4.05
2022-12-11T23:51:05.658Z,-4.13
2022-12-11T23:53:53.822Z,-4.26
2022-12-11T23:59:28.941Z,-4.07
